Time;durP1;ratioP1;P1;durP2;ratioP2;P2;SDS_P1;SDS_P2;PMS_P1;PMS_P2;Temp;Humidity;BMP_temperature;BMP_pressure;BME280_temperature;BME280_humidity;BME280_pressure;Samples;Min_cycle;Max_cycle;Signal;HPM_P1;HPM_P2
2022/06/28 00:02:06;;;;;;;5.88;5.38;;;13.70;99.90;;;;;;5065806;28;20051;-64
2022/06/28 00:04:32;;;;;;;6.70;6.10;;;13.70;99.90;;;;;;5066097;28;20055;-65
2022/06/28 00:06:58;;;;;;;6.90;6.00;;;13.60;99.90;;;;;;5064067;28;20036;-64
2022/06/28 00:09:23;;;;;;;7.85;6.53;;;13.60;99.90;;;;;;5066411;28;20105;-65
2022/06/28 00:11:49;;;;;;;5.95;5.50;;;13.60;99.90;;;;;;5064608;28;20052;-64
2022/06/28 00:17:00;;;;;;;7.70;7.03;;;13.50;99.90;;;;;;5065718;28;20076;-64
2022/06/28 00:19:26;;;;;;;11.77;7.50;;;13.50;99.90;;;;;;5066190;28;20082;-65
2022/06/28 00:21:51;;;;;;;11.05;7.50;;;13.50;99.90;;;;;;5064735;28;20464;-65
2022/06/28 00:24:17;;;;;;;7.85;7.07;;;13.40;99.90;;;;;;5066019;28;20121;-65
2022/06/28 00:26:43;;;;;;;14.23;7.75;;;13.40;99.90;;;;;;5066009;28;20043;-65
2022/06/28 00:29:08;;;;;;;8.88;7.97;;;13.40;99.90;;;;;;5064851;28;20073;-65
2022/06/28 00:31:34;;;;;;;11.05;8.30;;;13.50;99.90;;;;;;5066336;28;20043;-64
2022/06/28 00:34:01;;;;;;;9.93;8.70;;;13.50;99.90;;;;;;5065719;28;20044;-65
2022/06/28 00:36:27;;;;;;;9.00;8.20;;;13.50;99.90;;;;;;5065349;28;20411;-65
2022/06/28 00:38:53;;;;;;;10.43;8.48;;;13.50;99.90;;;;;;5065557;28;20403;-65
2022/06/28 00:41:19;;;;;;;12.35;9.10;;;13.50;99.90;;;;;;5065267;28;20080;-65
2022/06/28 00:43:46;;;;;;;12.52;8.77;;;13.50;99.90;;;;;;5064755;28;20045;-65
2022/06/28 00:46:11;;;;;;;10.77;8.18;;;13.50;99.90;;;;;;5065766;28;20052;-65
2022/06/28 00:48:38;;;;;;;9.73;7.97;;;13.50;99.90;;;;;;5066397;28;20093;-64
2022/06/28 00:51:04;;;;;;;9.43;8.32;;;13.50;99.90;;;;;;5065427;28;20101;-65
2022/06/28 00:53:29;;;;;;;10.25;9.25;;;13.60;99.90;;;;;;5065461;28;20548;-65
2022/06/28 00:55:55;;;;;;;10.77;8.93;;;13.40;99.90;;;;;;5065302;28;20040;-65
2022/06/28 00:58:20;;;;;;;10.38;8.63;;;13.40;99.90;;;;;;5065217;28;20105;-65
2022/06/28 01:00:48;;;;;;;8.63;7.85;;;13.40;99.90;;;;;;5065111;28;20043;-64
2022/06/28 01:03:22;;;;;;;8.85;7.97;;;13.40;99.90;;;;;;5065122;28;20048;-65
2022/06/28 01:05:49;;;;;;;9.20;8.32;;;13.30;99.90;;;;;;5063970;28;20053;-64
2022/06/28 01:08:15;;;;;;;11.38;8.57;;;13.30;99.90;;;;;;5065545;28;20045;-65
2022/06/28 01:10:41;;;;;;;19.23;8.10;;;13.30;99.90;;;;;;5065270;28;20475;-65
2022/06/28 01:13:08;;;;;;;9.65;8.65;;;13.30;99.90;;;;;;5065861;28;20047;-65
2022/06/28 01:15:35;;;;;;;9.20;8.40;;;13.30;99.90;;;;;;5064613;28;20048;-65
2022/06/28 01:18:03;;;;;;;10.38;9.35;;;13.30;99.90;;;;;;5064667;28;20055;-65
2022/06/28 01:20:28;;;;;;;8.52;7.72;;;13.20;99.90;;;;;;5064478;28;20402;-65
2022/06/28 01:22:55;;;;;;;12.85;8.82;;;13.20;99.90;;;;;;5065225;28;20040;-65
2022/06/28 01:25:24;;;;;;;10.43;8.75;;;13.20;99.90;;;;;;5064477;28;20561;-65
2022/06/28 01:27:51;;;;;;;10.63;8.48;;;13.20;99.90;;;;;;5064934;28;20048;-65
2022/06/28 01:30:17;;;;;;;9.50;8.60;;;13.20;99.90;;;;;;5065641;28;20044;-65
2022/06/28 01:32:44;;;;;;;12.50;8.48;;;13.20;99.90;;;;;;5064672;28;20582;-65
2022/06/28 01:35:10;;;;;;;12.90;9.02;;;13.20;99.90;;;;;;5065245;28;20084;-64
2022/06/28 01:37:36;;;;;;;11.93;8.77;;;13.10;99.90;;;;;;5065926;28;20079;-65
2022/06/28 01:40:04;;;;;;;10.30;8.57;;;13.10;99.90;;;;;;5064346;28;20148;-65
2022/06/28 01:42:30;;;;;;;8.88;8.07;;;13.10;99.90;;;;;;5065374;28;20051;-65
2022/06/28 01:44:58;;;;;;;26.20;9.77;;;13.10;99.90;;;;;;5065156;28;20083;-65
2022/06/28 01:47:26;;;;;;;10.63;8.20;;;13.10;99.90;;;;;;5064840;28;20127;-65
2022/06/28 01:49:52;;;;;;;9.20;8.30;;;13.10;99.90;;;;;;5064788;28;20051;-65
2022/06/28 01:52:18;;;;;;;9.10;8.15;;;13.10;99.90;;;;;;5066784;28;20058;-65
2022/06/28 01:54:44;;;;;;;8.95;8.18;;;13.10;99.90;;;;;;5067704;28;20427;-65
2022/06/28 01:57:10;;;;;;;9.07;8.15;;;13.10;99.90;;;;;;5067061;28;20057;-65
2022/06/28 01:59:39;;;;;;;10.93;8.05;;;13.00;99.90;;;;;;5068591;28;20341;-65
2022/06/28 02:02:06;;;;;;;9.70;8.80;;;13.00;99.90;;;;;;5067495;28;20044;-65
2022/06/28 02:04:32;;;;;;;8.90;7.70;;;13.00;99.90;;;;;;5067332;28;20056;-65
2022/06/28 02:06:58;;;;;;;8.45;7.35;;;13.00;99.90;;;;;;5067441;28;20763;-65
2022/06/28 02:09:24;;;;;;;9.55;7.07;;;13.00;99.90;;;;;;5068348;28;20047;-65
2022/06/28 02:11:51;;;;;;;12.68;8.35;;;12.90;99.90;;;;;;5068203;28;20052;-65
2022/06/28 02:14:16;;;;;;;23.60;8.13;;;12.90;99.90;;;;;;5068030;28;20068;-65
2022/06/28 02:16:42;;;;;;;10.52;7.10;;;12.90;99.90;;;;;;5068320;28;20459;-65
2022/06/28 02:19:08;;;;;;;9.02;6.90;;;12.90;99.90;;;;;;5068647;28;20049;-64
2022/06/28 02:21:36;;;;;;;7.22;6.53;;;12.90;99.90;;;;;;5066962;28;20044;-65
2022/06/28 02:24:02;;;;;;;9.63;7.45;;;12.90;99.90;;;;;;5067695;28;20090;-65
2022/06/28 02:26:27;;;;;;;8.43;7.47;;;12.90;99.90;;;;;;5068379;28;20498;-64
2022/06/28 02:28:53;;;;;;;9.00;7.38;;;12.90;99.90;;;;;;5065548;28;20132;-64
2022/06/28 02:31:19;;;;;;;8.40;6.70;;;12.90;99.90;;;;;;5068208;28;20066;-64
2022/06/28 02:33:44;;;;;;;7.72;6.93;;;12.90;99.90;;;;;;5067958;28;20488;-64
2022/06/28 02:41:39;;;;;;;7.68;6.40;;;12.80;99.90;;;;;;5067366;28;20048;-64
2022/06/28 02:44:05;;;;;;;9.85;6.57;;;12.80;99.90;;;;;;5067942;28;20317;-64
2022/06/28 02:46:31;;;;;;;7.47;6.50;;;12.70;99.90;;;;;;5067866;28;20162;-64
2022/06/28 02:48:56;;;;;;;8.93;6.47;;;12.70;99.90;;;;;;5066514;28;20372;-64
2022/06/28 02:51:22;;;;;;;11.68;6.82;;;12.70;99.90;;;;;;5067757;28;20185;-64
2022/06/28 02:53:48;;;;;;;6.55;5.72;;;12.70;99.90;;;;;;5067526;28;20120;-64
2022/06/28 02:56:14;;;;;;;6.63;5.80;;;12.70;99.90;;;;;;5066735;28;20049;-65
2022/06/28 02:58:40;;;;;;;7.47;5.85;;;12.70;99.90;;;;;;5067274;28;20055;-64
2022/06/28 03:01:06;;;;;;;8.38;6.63;;;12.70;99.90;;;;;;5066528;28;20052;-64
2022/06/28 03:03:31;;;;;;;8.95;6.63;;;12.70;99.90;;;;;;5065734;28;20048;-64
2022/06/28 03:05:57;;;;;;;6.68;6.13;;;12.70;99.90;;;;;;5067094;28;20207;-64
2022/06/28 03:08:23;;;;;;;8.88;6.20;;;12.70;99.90;;;;;;5067407;28;20040;-64
2022/06/28 03:10:48;;;;;;;7.95;5.63;;;12.70;99.90;;;;;;5066161;28;20412;-64
2022/06/28 03:13:14;;;;;;;7.97;5.95;;;12.70;99.90;;;;;;5067355;28;20056;-64
2022/06/28 03:15:40;;;;;;;7.03;5.78;;;12.70;99.90;;;;;;5067261;28;20037;-64
2022/06/28 03:18:06;;;;;;;6.82;5.82;;;12.70;99.90;;;;;;5066588;28;20048;-64
2022/06/28 03:20:31;;;;;;;9.48;5.68;;;12.70;99.90;;;;;;5067275;28;20040;-64
2022/06/28 03:22:57;;;;;;;7.55;6.13;;;12.70;99.90;;;;;;5066666;28;20909;-65
2022/06/28 03:25:23;;;;;;;6.30;5.60;;;12.70;99.90;;;;;;5066407;28;20079;-64
2022/06/28 03:27:48;;;;;;;6.38;5.78;;;12.70;99.90;;;;;;5066720;28;20399;-64
2022/06/28 03:30:14;;;;;;;6.90;5.40;;;12.60;99.90;;;;;;5066941;28;20498;-64
2022/06/28 03:32:40;;;;;;;8.10;5.88;;;12.60;99.90;;;;;;5065225;28;20457;-64
2022/06/28 03:35:07;;;;;;;5.50;5.05;;;12.60;99.90;;;;;;5067251;28;20044;-64
2022/06/28 03:37:34;;;;;;;6.03;5.43;;;12.60;99.90;;;;;;5065872;28;20052;-64
2022/06/28 03:39:59;;;;;;;6.68;5.82;;;12.60;99.90;;;;;;5066066;28;20040;-64
2022/06/28 03:42:25;;;;;;;8.90;5.93;;;12.60;99.90;;;;;;5066467;28;20391;-64
2022/06/28 03:44:51;;;;;;;6.30;5.70;;;12.60;99.90;;;;;;5066289;28;20044;-64
2022/06/28 03:47:17;;;;;;;11.55;6.03;;;12.50;99.90;;;;;;5064749;28;20086;-64
2022/06/28 03:49:42;;;;;;;8.35;6.30;;;12.60;99.90;;;;;;5066551;28;20052;-64
2022/06/28 03:52:08;;;;;;;6.82;5.47;;;12.50;99.90;;;;;;5065575;28;20055;-64
2022/06/28 03:54:34;;;;;;;10.35;6.20;;;12.50;99.90;;;;;;5065857;28;20098;-63
2022/06/28 03:57:00;;;;;;;6.88;5.93;;;12.50;99.90;;;;;;5064694;28;20088;-65
2022/06/28 03:59:25;;;;;;;9.80;6.03;;;12.50;99.90;;;;;;5065697;28;20123;-64
2022/06/28 04:01:51;;;;;;;5.88;5.25;;;12.60;99.90;;;;;;5065823;28;20116;-64
2022/06/28 04:04:16;;;;;;;5.90;5.40;;;12.60;99.90;;;;;;5066522;28;20426;-64
2022/06/28 04:06:42;;;;;;;7.22;5.70;;;12.60;99.90;;;;;;5064375;28;20041;-64
2022/06/28 04:09:08;;;;;;;8.43;6.28;;;12.60;99.90;;;;;;5065968;28;20040;-64
2022/06/28 04:11:34;;;;;;;13.57;6.40;;;12.60;99.90;;;;;;5065441;28;20040;-64
2022/06/28 04:14:00;;;;;;;5.78;5.15;;;12.60;99.90;;;;;;5065585;28;20070;-64
2022/06/28 04:16:25;;;;;;;10.77;5.90;;;12.60;99.90;;;;;;5065981;28;20044;-64
2022/06/28 04:18:51;;;;;;;6.97;6.22;;;12.60;99.90;;;;;;5066059;28;20076;-64
2022/06/28 04:21:18;;;;;;;7.88;5.18;;;12.60;99.90;;;;;;5065370;28;20546;-64
2022/06/28 04:23:45;;;;;;;7.50;5.40;;;12.60;99.90;;;;;;5066085;28;20037;-64
2022/06/28 04:26:11;;;;;;;7.75;4.95;;;12.60;99.90;;;;;;5066012;28;20505;-64
2022/06/28 04:28:37;;;;;;;8.20;5.07;;;12.60;99.90;;;;;;5064534;28;20074;-64
2022/06/28 04:31:04;;;;;;;8.75;6.15;;;12.60;99.90;;;;;;5066349;28;20087;-64
2022/06/28 04:33:30;;;;;;;8.65;5.50;;;12.60;99.90;;;;;;5066067;28;20040;-64
2022/06/28 04:35:56;;;;;;;9.40;5.32;;;12.60;99.90;;;;;;5065031;28;20042;-64
2022/06/28 04:38:22;;;;;;;9.05;5.38;;;12.70;99.90;;;;;;5064517;28;20487;-64
2022/06/28 04:40:48;;;;;;;9.73;5.22;;;12.80;99.90;;;;;;5065617;28;20040;-64
2022/06/28 04:43:14;;;;;;;7.55;5.40;;;12.80;99.90;;;;;;5063806;28;20044;-64
2022/06/28 04:45:40;;;;;;;12.15;5.25;;;12.90;99.90;;;;;;5065451;28;20036;-64
2022/06/28 04:48:06;;;;;;;11.82;6.05;;;12.90;99.90;;;;;;5065846;28;20091;-64
2022/06/28 04:50:32;;;;;;;7.18;5.45;;;12.90;99.90;;;;;;5063769;28;20080;-64
2022/06/28 04:52:58;;;;;;;8.57;5.50;;;13.00;99.90;;;;;;5065793;28;20406;-64
2022/06/28 04:55:24;;;;;;;7.82;5.10;;;13.10;99.90;;;;;;5064959;28;20567;-64
2022/06/28 04:57:49;;;;;;;10.05;5.72;;;13.10;99.90;;;;;;5065232;28;20135;-64
2022/06/28 05:00:16;;;;;;;10.85;5.90;;;13.20;99.90;;;;;;5065576;28;20090;-64
2022/06/28 05:02:42;;;;;;;8.13;5.22;;;13.30;99.90;;;;;;5065385;28;20032;-64
2022/06/28 05:05:09;;;;;;;8.65;5.18;;;13.30;99.90;;;;;;5065709;28;20491;-64
2022/06/28 05:07:36;;;;;;;9.73;5.00;;;13.40;99.90;;;;;;5066394;28;20040;-64
2022/06/28 05:10:03;;;;;;;10.43;5.85;;;13.50;99.90;;;;;;5064881;28;20051;-64
2022/06/28 05:12:29;;;;;;;8.35;5.00;;;13.50;99.90;;;;;;5065393;28;20044;-64
2022/06/28 05:14:55;;;;;;;8.90;5.00;;;13.60;99.90;;;;;;5065159;28;20060;-64
2022/06/28 05:17:20;;;;;;;8.52;4.43;;;13.60;99.90;;;;;;5064841;28;20045;-64
2022/06/28 05:19:46;;;;;;;5.15;4.45;;;13.80;99.90;;;;;;5065253;28;20040;-64
2022/06/28 05:22:12;;;;;;;7.97;5.28;;;13.80;99.90;;;;;;5065608;28;20099;-64
2022/06/28 05:24:38;;;;;;;5.88;4.43;;;13.80;99.90;;;;;;5064743;28;20410;-64
2022/06/28 05:27:04;;;;;;;8.35;4.95;;;13.80;99.90;;;;;;5065962;28;20037;-64
2022/06/28 05:29:30;;;;;;;7.43;4.20;;;13.90;99.90;;;;;;5069204;28;20136;-65
2022/06/28 05:31:57;;;;;;;6.93;4.20;;;13.90;99.90;;;;;;5068169;28;20174;-64
2022/06/28 05:34:23;;;;;;;7.20;4.15;;;14.10;99.90;;;;;;5069289;28;20117;-64
2022/06/28 05:36:48;;;;;;;8.95;4.28;;;14.10;99.90;;;;;;5068814;28;20094;-64
2022/06/28 05:39:15;;;;;;;6.32;3.90;;;14.10;99.90;;;;;;5068413;28;20526;-64
2022/06/28 05:41:44;;;;;;;6.75;4.50;;;14.20;99.90;;;;;;5067517;28;20048;-65
2022/06/28 05:44:11;;;;;;;12.73;4.80;;;14.30;99.90;;;;;;5068849;28;20080;-64
2022/06/28 05:46:39;;;;;;;10.48;4.50;;;14.30;99.90;;;;;;5068931;28;20040;-64
2022/06/28 05:49:06;;;;;;;5.93;3.90;;;14.40;99.90;;;;;;5069303;28;20076;-64
2022/06/28 05:51:31;;;;;;;7.35;4.47;;;14.40;99.90;;;;;;5068511;28;20040;-64
2022/06/28 05:53:57;;;;;;;8.43;4.15;;;14.50;99.90;;;;;;5068102;28;20450;-64
2022/06/28 05:56:23;;;;;;;8.25;4.43;;;14.60;99.90;;;;;;5068707;28;20486;-64
2022/06/28 05:58:48;;;;;;;5.72;3.50;;;14.60;99.90;;;;;;5067647;28;20422;-64
2022/06/28 06:01:14;;;;;;;10.27;4.32;;;14.70;99.90;;;;;;5068850;28;20040;-64
2022/06/28 06:03:40;;;;;;;8.90;3.17;;;14.70;99.90;;;;;;5067038;28;20086;-65
2022/06/28 06:06:06;;;;;;;7.78;3.55;;;14.80;99.90;;;;;;5068420;28;20346;-65
2022/06/28 06:08:35;;;;;;;8.70;4.50;;;14.90;99.90;;;;;;5069210;28;20044;-64
2022/06/28 06:11:02;;;;;;;5.28;3.60;;;14.90;99.90;;;;;;5068088;28;20049;-64
2022/06/28 06:13:27;;;;;;;7.93;3.72;;;15.00;99.90;;;;;;5068067;28;20078;-64
2022/06/28 06:15:53;;;;;;;5.10;3.42;;;15.10;99.90;;;;;;5068025;28;20084;-64
2022/06/28 06:18:19;;;;;;;8.95;3.97;;;15.20;99.90;;;;;;5068299;28;20237;-64
2022/06/28 06:20:44;;;;;;;8.07;3.85;;;15.40;99.90;;;;;;5067285;28;20581;-64
2022/06/28 06:23:10;;;;;;;7.32;3.50;;;15.30;99.90;;;;;;5068011;28;20040;-64
2022/06/28 06:25:35;;;;;;;5.32;3.65;;;15.30;99.90;;;;;;5068588;28;20129;-64
2022/06/28 06:28:01;;;;;;;9.18;3.58;;;15.40;99.90;;;;;;5067068;28;20044;-64
2022/06/28 06:30:27;;;;;;;7.40;3.05;;;15.40;99.90;;;;;;5067114;28;20048;-64
2022/06/28 06:32:53;;;;;;;6.95;3.72;;;15.50;99.90;;;;;;5066774;28;20088;-64
2022/06/28 06:35:18;;;;;;;5.28;3.50;;;15.60;99.90;;;;;;5066451;28;20533;-64
2022/06/28 06:37:44;;;;;;;3.95;3.28;;;15.80;99.90;;;;;;5067926;28;20550;-64
2022/06/28 06:40:10;;;;;;;8.57;3.08;;;15.70;99.90;;;;;;5067570;28;20049;-65
2022/06/28 06:42:35;;;;;;;9.38;2.95;;;15.80;99.90;;;;;;5067777;28;20069;-64
2022/06/28 06:45:01;;;;;;;8.52;3.50;;;15.90;99.90;;;;;;5066191;28;20051;-64
2022/06/28 06:47:26;;;;;;;6.35;2.58;;;15.90;99.90;;;;;;5067803;28;20444;-64
2022/06/28 06:49:52;;;;;;;7.18;3.20;;;16.00;99.90;;;;;;5066514;28;20051;-64
2022/06/28 06:52:18;;;;;;;8.30;3.03;;;16.10;99.90;;;;;;5067625;28;20040;-64
2022/06/28 06:54:43;;;;;;;8.23;2.72;;;16.10;99.90;;;;;;5067784;28;20125;-65
2022/06/28 06:57:09;;;;;;;6.30;2.88;;;16.20;99.90;;;;;;5066331;28;20049;-65
2022/06/28 06:59:35;;;;;;;10.80;3.00;;;16.30;99.90;;;;;;5068126;28;20044;-65
2022/06/28 07:02:00;;;;;;;9.98;3.20;;;16.30;99.90;;;;;;5064946;28;20044;-64
2022/06/28 07:04:26;;;;;;;9.02;2.92;;;16.40;99.90;;;;;;5067464;28;20048;-64
2022/06/28 07:06:51;;;;;;;6.85;2.63;;;16.50;99.90;;;;;;5067144;28;20043;-64
2022/06/28 07:09:17;;;;;;;5.53;2.30;;;16.50;99.90;;;;;;5065511;28;20050;-64
2022/06/28 07:11:43;;;;;;;7.68;2.38;;;16.60;99.90;;;;;;5067521;28;20491;-64
2022/06/28 07:14:08;;;;;;;9.98;2.60;;;16.70;99.90;;;;;;5067138;28;20128;-64
2022/06/28 07:16:34;;;;;;;6.63;2.58;;;16.80;99.90;;;;;;5066087;28;20040;-64
2022/06/28 07:19:00;;;;;;;6.60;2.47;;;16.80;99.90;;;;;;5066913;28;20076;-64
2022/06/28 07:21:27;;;;;;;5.70;2.35;;;16.90;99.90;;;;;;5066351;28;20080;-65
2022/06/28 07:23:53;;;;;;;10.88;2.20;;;17.10;99.90;;;;;;5065961;28;20049;-64
2022/06/28 07:26:19;;;;;;;8.10;2.58;;;17.10;99.90;;;;;;5067360;28;20150;-65
2022/06/28 07:28:45;;;;;;;8.60;2.05;;;17.20;99.90;;;;;;5065563;28;20368;-64
2022/06/28 07:31:11;;;;;;;6.25;2.28;;;17.30;99.90;;;;;;5066522;28;20092;-63
2022/06/28 07:33:37;;;;;;;6.68;2.60;;;17.40;99.90;;;;;;5066084;28;20076;-65
2022/06/28 07:36:03;;;;;;;8.65;2.25;;;17.60;99.90;;;;;;5065086;28;20068;-64
2022/06/28 07:38:29;;;;;;;5.30;2.20;;;17.50;99.90;;;;;;5066149;28;20044;-64
2022/06/28 07:40:56;;;;;;;6.70;2.10;;;17.60;99.90;;;;;;5066599;28;20119;-64
2022/06/28 07:43:23;;;;;;;7.13;1.83;;;17.70;99.90;;;;;;5066970;28;20076;-65
2022/06/28 07:45:48;;;;;;;3.40;1.55;;;17.80;99.90;;;;;;5065807;28;20454;-64
2022/06/28 07:48:14;;;;;;;5.70;1.55;;;17.90;99.90;;;;;;5066427;28;20120;-64
2022/06/28 07:53:24;;;;;;;3.05;1.25;;;18.00;99.90;;;;;;5065959;28;20044;-64
2022/06/28 07:55:50;;;;;;;5.95;1.50;;;18.00;99.90;;;;;;5065987;28;20502;-64
2022/06/28 07:58:16;;;;;;;6.03;1.75;;;18.10;99.90;;;;;;5065690;28;20059;-64
2022/06/28 08:00:43;;;;;;;8.63;1.88;;;18.10;99.90;;;;;;5066215;28;20084;-64
2022/06/28 08:03:09;;;;;;;6.75;1.38;;;18.00;99.90;;;;;;5065994;28;20059;-65
2022/06/28 08:05:34;;;;;;;4.78;1.15;;;17.90;99.90;;;;;;5064839;28;20052;-65
2022/06/28 08:08:00;;;;;;;4.75;1.08;;;17.90;99.90;;;;;;5066039;28;20040;-65
2022/06/28 08:10:26;;;;;;;7.07;1.60;;;18.10;99.90;;;;;;5066257;28;20415;-64
2022/06/28 08:12:51;;;;;;;6.47;1.60;;;18.20;99.90;;;;;;5065127;28;20044;-65
2022/06/28 08:15:17;;;;;;;6.10;1.70;;;18.40;99.90;;;;;;5066194;28;20051;-64
2022/06/28 08:17:42;;;;;;;6.70;1.63;;;18.50;99.90;;;;;;5064841;28;20057;-64
2022/06/28 08:20:09;;;;;;;7.45;1.30;;;18.50;99.90;;;;;;5065117;28;20048;-64
2022/06/28 08:22:35;;;;;;;3.42;1.23;;;18.50;99.90;;;;;;5065291;28;20084;-63
2022/06/28 08:25:01;;;;;;;4.65;1.23;;;18.50;99.90;;;;;;5065686;28;20052;-64
2022/06/28 08:27:26;;;;;;;3.97;1.33;;;18.50;99.90;;;;;;5065505;28;20070;-64
2022/06/28 08:29:53;;;;;;;5.47;1.17;;;18.60;99.90;;;;;;5065729;28;20059;-65
2022/06/28 08:32:20;;;;;;;5.50;1.30;;;18.70;99.90;;;;;;5066029;28;20109;-65
2022/06/28 08:34:47;;;;;;;3.22;1.10;;;18.70;99.90;;;;;;5065747;28;20107;-65
2022/06/28 08:37:13;;;;;;;3.35;0.93;;;18.70;99.90;;;;;;5066392;28;20044;-64
2022/06/28 08:39:39;;;;;;;4.55;1.00;;;18.70;99.90;;;;;;5066201;28;20154;-65
2022/06/28 08:42:05;;;;;;;3.63;0.75;;;18.80;99.90;;;;;;5065567;28;20119;-64
2022/06/28 08:44:34;;;;;;;4.47;1.40;;;18.80;99.90;;;;;;5065760;28;20052;-64
2022/06/28 08:47:01;;;;;;;2.55;0.70;;;18.80;99.90;;;;;;5065468;28;20504;-64
2022/06/28 08:49:47;;;;;;;2.83;1.05;;;18.60;99.90;;;;;;5065252;28;20044;-64
2022/06/28 08:52:14;;;;;;;6.55;1.27;;;18.50;99.90;;;;;;5066078;28;20079;-64
2022/06/28 08:54:41;;;;;;;3.45;1.23;;;18.50;99.90;;;;;;5064926;28;20419;-64
2022/06/28 08:57:07;;;;;;;2.25;1.13;;;18.50;99.90;;;;;;5064787;28;20057;-64
2022/06/28 08:59:36;;;;;;;4.07;1.08;;;18.80;99.90;;;;;;5066472;28;20082;-64
2022/06/28 09:02:06;;;;;;;4.90;1.10;;;18.80;99.90;;;;;;5066095;28;20048;-64
2022/06/28 09:04:32;;;;;;;2.47;0.98;;;19.00;99.90;;;;;;5068613;28;20494;-64
2022/06/28 09:06:58;;;;;;;5.05;1.05;;;19.00;99.90;;;;;;5069427;28;20200;-64
2022/06/28 09:09:24;;;;;;;6.05;1.67;;;19.20;99.90;;;;;;5069011;28;20059;-64
2022/06/28 09:11:52;;;;;;;3.88;1.00;;;19.30;99.90;;;;;;5069468;28;20052;-64
2022/06/28 09:14:35;;;;;;;5.85;1.90;;;19.40;99.90;;;;;;5068531;28;20124;-64
2022/06/28 09:17:19;;;;;;;5.90;1.73;;;19.40;99.90;;;;;;5068637;28;20089;-64
2022/06/28 09:19:46;;;;;;;1.80;1.35;;;19.60;99.90;;;;;;5069475;28;20113;-64
2022/06/28 09:22:29;;;;;;;4.63;1.20;;;19.60;99.90;;;;;;5069579;28;20041;-64
2022/06/28 09:24:54;;;;;;;2.05;0.63;;;19.40;99.90;;;;;;5067068;28;20487;-64
2022/06/28 09:27:31;;;;;;;3.67;1.33;;;19.40;99.90;;;;;;5067986;28;20059;-64
2022/06/28 09:29:57;;;;;;;2.65;0.80;;;19.20;99.90;;;;;;5068314;28;20652;-64
2022/06/28 09:32:28;;;;;;;5.45;1.60;;;19.10;99.90;;;;;;5068035;28;20143;-64
2022/06/28 09:35:01;;;;;;;2.70;1.08;;;19.20;99.90;;;;;;5069215;28;20055;-64
2022/06/28 09:37:40;;;;;;;3.53;1.05;;;19.30;99.90;;;;;;5068568;28;20049;-64
2022/06/28 09:40:19;;;;;;;4.63;1.38;;;19.40;99.90;;;;;;5069459;28;20052;-64
2022/06/28 09:43:03;;;;;;;5.30;1.30;;;19.70;99.90;;;;;;5069096;28;20060;-64
2022/06/28 09:45:29;;;;;;;3.58;1.10;;;19.90;99.90;;;;;;5068276;28;20514;-64
2022/06/28 09:47:55;;;;;;;3.25;0.93;;;19.80;99.90;;;;;;5068612;28;20032;-64
2022/06/28 09:50:23;;;;;;;4.75;1.10;;;19.60;99.90;;;;;;5069135;28;20048;-65
2022/06/28 09:52:50;;;;;;;1.58;0.80;;;19.40;99.90;;;;;;5067876;28;20106;-64
2022/06/28 09:55:16;;;;;;;6.60;1.30;;;19.40;99.90;;;;;;5068767;28;20049;-64
2022/06/28 09:57:47;;;;;;;7.88;1.27;;;19.10;99.90;;;;;;5065970;28;20056;-64
2022/06/28 10:00:17;;;;;;;3.95;1.40;;;18.90;99.90;;;;;;5067499;28;20048;-64
2022/06/28 10:02:43;;;;;;;7.57;1.92;;;18.80;99.90;;;;;;5067806;28;20186;-65
2022/06/28 10:05:10;;;;;;;3.65;1.00;;;18.60;99.90;;;;;;5066675;28;20127;-64
2022/06/28 10:07:37;;;;;;;2.88;0.95;;;18.60;99.90;;;;;;5068135;28;20078;-64
2022/06/28 10:10:04;;;;;;;4.15;1.50;;;18.50;99.90;;;;;;5067504;28;20135;-64
2022/06/28 10:15:19;;;;;;;8.07;1.70;;;18.60;99.90;;;;;;5067442;28;20060;-64
2022/06/28 10:17:53;;;;;;;3.08;0.93;;;18.80;99.90;;;;;;5067335;28;20087;-65
2022/06/28 10:20:24;;;;;;;3.65;1.30;;;19.20;99.90;;;;;;5066650;28;20074;-65
2022/06/28 10:22:50;;;;;;;6.57;1.27;;;19.50;99.90;;;;;;5065633;28;20123;-65
2022/06/28 10:25:19;;;;;;;7.78;1.55;;;19.70;99.90;;;;;;5067542;28;20051;-65
2022/06/28 10:27:49;;;;;;;3.80;1.48;;;19.90;99.90;;;;;;5066685;28;20036;-64
2022/06/28 10:30:28;;;;;;;6.05;1.65;;;20.20;99.90;;;;;;5065836;28;20036;-64
2022/06/28 10:33:13;;;;;;;3.85;1.27;;;20.50;99.90;;;;;;5066154;28;20049;-64
2022/06/28 10:35:42;;;;;;;5.70;1.40;;;20.60;99.90;;;;;;5067023;28;20452;-64
2022/06/28 10:38:10;;;;;;;4.88;1.55;;;20.60;99.90;;;;;;5067278;28;20539;-64
2022/06/28 10:40:42;;;;;;;5.07;1.50;;;20.70;99.90;;;;;;5067028;28;20741;-64
2022/06/28 10:43:08;;;;;;;5.50;1.27;;;20.60;99.90;;;;;;5067238;28;20048;-64
2022/06/28 10:46:09;;;;;;;4.10;1.20;;;20.50;99.90;;;;;;5067440;28;20080;-65
2022/06/28 10:48:50;;;;;;;6.63;2.05;;;20.40;99.90;;;;;;5066751;28;20450;-64
2022/06/28 10:51:16;;;;;;;2.97;1.15;;;20.40;99.90;;;;;;5066915;28;20474;-64
2022/06/28 10:54:01;;;;;;;3.13;1.27;;;20.50;99.90;;;;;;5065423;28;20052;-64
2022/06/28 10:56:28;;;;;;;2.17;0.90;;;20.40;99.90;;;;;;5029641;28;1053201;-65
2022/06/28 10:59:05;;;;;;;5.00;1.30;;;20.40;99.90;;;;;;5065863;28;20126;-64
2022/06/28 11:01:40;;;;;;;7.47;1.25;;;20.50;99.90;;;;;;5067051;28;20037;-64
2022/06/28 11:04:23;;;;;;;6.88;1.88;;;20.60;99.90;;;;;;5067542;28;20204;-64
2022/06/28 11:07:19;;;;;;;1.85;1.23;;;20.80;99.90;;;;;;5065986;28;20150;-64
2022/06/28 11:10:13;;;;;;;3.30;1.00;;;20.80;99.90;;;;;;5067069;28;20044;-64
2022/06/28 11:12:41;;;;;;;3.55;1.27;;;20.90;99.90;;;;;;5067006;28;20044;-64
2022/06/28 11:15:35;;;;;;;3.45;1.13;;;21.10;99.90;;;;;;5066897;28;20048;-64
2022/06/28 11:18:01;;;;;;;3.33;1.40;;;21.10;99.90;;;;;;5066785;28;20593;-64
2022/06/28 11:20:28;;;;;;;6.78;1.48;;;21.20;99.90;;;;;;5067344;28;20131;-64
2022/06/28 11:22:54;;;;;;;4.30;1.42;;;21.00;99.90;;;;;;5066238;28;20078;-64
2022/06/28 11:25:21;;;;;;;3.67;1.10;;;20.90;99.90;;;;;;5066018;28;20495;-64
2022/06/28 11:27:58;;;;;;;5.80;1.35;;;20.70;99.90;;;;;;5066979;28;20055;-64
2022/06/28 11:30:27;;;;;;;5.20;1.33;;;20.70;99.90;;;;;;5066483;28;20052;-65
2022/06/28 11:32:55;;;;;;;3.53;0.90;;;20.40;99.90;;;;;;5066612;28;20474;-65
2022/06/28 11:35:28;;;;;;;4.30;1.27;;;20.30;99.90;;;;;;5066968;28;20075;-65
2022/06/28 11:37:58;;;;;;;2.85;1.40;;;20.40;99.90;;;;;;5065887;28;20051;-65
2022/06/28 11:40:40;;;;;;;5.63;1.00;;;20.60;99.90;;;;;;5067004;28;20090;-64
2022/06/28 11:43:15;;;;;;;2.72;1.17;;;21.00;99.90;;;;;;5066845;28;20047;-65
2022/06/28 11:45:43;;;;;;;4.60;1.13;;;21.30;99.90;;;;;;5067059;28;20487;-65
2022/06/28 11:48:21;;;;;;;11.77;1.67;;;21.50;99.90;;;;;;5066550;28;20055;-65
2022/06/28 11:50:47;;;;;;;2.00;1.20;;;21.70;99.90;;;;;;5065589;28;20063;-65
2022/06/28 11:53:15;;;;;;;3.95;1.05;;;22.00;99.90;;;;;;5066898;28;20117;-65
2022/06/28 11:55:46;;;;;;;2.63;1.15;;;22.10;99.90;;;;;;5066631;28;20051;-65
2022/06/28 11:58:16;;;;;;;3.53;1.33;;;22.00;99.90;;;;;;5064432;28;20110;-65
2022/06/28 12:01:17;;;;;;;6.32;1.17;;;21.80;99.90;;;;;;5066484;28;20084;-65
2022/06/28 12:03:43;;;;;;;4.15;1.30;;;21.70;99.90;;;;;;5066536;28;20040;-65
2022/06/28 12:06:30;;;;;;;4.38;0.85;;;21.80;99.90;;;;;;5065283;28;20511;-65
2022/06/28 12:09:03;;;;;;;3.72;1.40;;;22.00;99.90;;;;;;5065948;28;20436;-64
2022/06/28 12:11:29;;;;;;;5.00;1.35;;;22.20;99.90;;;;;;5065884;28;20056;-65
2022/06/28 12:13:59;;;;;;;3.92;1.00;;;22.40;99.90;;;;;;5066048;28;20051;-65
2022/06/28 12:16:38;;;;;;;2.97;1.17;;;22.40;99.90;;;;;;5066285;28;20132;-65
2022/06/28 12:19:12;;;;;;;4.35;1.10;;;22.20;99.90;;;;;;5065920;28;20056;-65
2022/06/28 12:21:56;;;;;;;2.50;0.93;;;22.00;99.90;;;;;;5066186;28;20089;-65
2022/06/28 12:24:44;;;;;;;3.33;1.00;;;21.90;99.90;;;;;;5066253;28;20051;-66
2022/06/28 12:27:14;;;;;;;5.57;1.33;;;21.60;99.90;;;;;;5064742;28;20056;-65
2022/06/28 12:29:41;;;;;;;3.53;1.35;;;21.40;99.90;;;;;;5065769;28;20574;-65
2022/06/28 12:32:07;;;;;;;5.72;1.27;;;21.30;99.90;;;;;;5065921;28;20060;-65
2022/06/28 12:34:33;;;;;;;6.15;1.27;;;21.20;99.90;;;;;;5065325;28;20446;-65
2022/06/28 12:36:59;;;;;;;4.15;1.20;;;21.40;99.90;;;;;;5063975;28;20053;-65
2022/06/28 12:39:25;;;;;;;3.28;1.38;;;21.50;99.90;;;;;;5066002;28;20063;-65
2022/06/28 12:41:51;;;;;;;5.32;1.50;;;21.80;99.90;;;;;;5063618;28;20059;-64
2022/06/28 12:44:17;;;;;;;5.90;1.48;;;21.90;99.90;;;;;;5065957;28;20084;-65
2022/06/28 12:46:44;;;;;;;3.88;1.50;;;21.90;99.90;;;;;;5065010;28;20071;-65
2022/06/28 12:49:10;;;;;;;5.90;1.70;;;21.90;99.90;;;;;;5065438;28;20041;-65
2022/06/28 12:51:36;;;;;;;4.15;1.40;;;22.00;99.90;;;;;;5065281;28;20043;-65
2022/06/28 12:54:02;;;;;;;4.57;1.90;;;22.20;99.90;;;;;;5063504;28;20052;-65
2022/06/28 12:56:28;;;;;;;2.65;1.45;;;22.30;99.90;;;;;;5065777;28;20345;-65
2022/06/28 12:58:57;;;;;;;6.20;1.60;;;22.50;99.90;;;;;;5065439;28;20089;-65
2022/06/28 13:01:23;;;;;;;2.65;1.10;;;22.80;99.90;;;;;;5064829;28;20064;-66
2022/06/28 13:03:48;;;;;;;4.68;1.17;;;23.00;99.90;;;;;;5064036;28;20084;-65